PWSweather.com
Personal Weather Stations
Station Observations
KTXPLANO60
Highlands Of Russell Park, Plano, TX 75025

Highlands Of Russell ParkPlano, TX 75025

Lat: 33.10431671, Lon: -96.75176239

Elevation: 761

Station Type: Davis Wireless VP2 Plus

http://www.planoweather.com

Latest ConditionsUpdated 8:50:06 PM CDT Thursday, Mar 26, 2015
Currently Today's Max Today's Min Today's Average
Temperature 55.2°F12.9°C 70.9°F21.6°C 49.4°F9.7°C 58.8°F14.9°C
Dew Point 33.6°F0.9°C 62.8°F17.1°C 32.7°F0.4°C 44.8°F7.1°C
Winds 3.5 mph NNW5.6 kmh NNW 18.7 mph NW30.1 kmh NW - 11.2 mph 18.0 kmh
Wind Gusts 5.0 mph8.0 kmh 31.0 mph49.9 kmh - -
Humidity 44% 89% 30% 63%
Pressure 30.08 in1018.6 mb 30.09 in1019.0 mb 29.69 in1005.4 mb -
Precipitation - 0.01 in0.3 mm - -
Hour Temp Dew Point Humidity Winds Wind Gusts Pressure Precip Precip Rate Daily Precip Total
08:50 PM 55.2°F12.9°C 33.6°F0.9°C 44% 3.5 mph NNW5.6 kmh NNW 5.0 mph8.0 kmh 30.08 in1018.6 mb - 0.00 in0.0 mm 0.01 in0.3 mm
08:40 PM 55.8°F13.2°C 33.6°F0.9°C 43% 2.0 mph NNW3.2 kmh NNW 4.0 mph6.4 kmh 30.08 in1018.6 mb - 0.00 in0.0 mm 0.01 in0.3 mm
08:30 PM 56.4°F13.6°C 33.6°F0.9°C 42% 2.8 mph NNW4.5 kmh NNW 6.0 mph9.7 kmh 30.08 in1018.6 mb - 0.00 in0.0 mm 0.01 in0.3 mm
08:20 PM 57.0°F13.9°C 32.9°F0.5°C 40% 5.1 mph N8.2 kmh N 6.0 mph9.7 kmh 30.07 in1018.3 mb - 0.00 in0.0 mm 0.01 in0.3 mm
08:10 PM 57.6°F14.2°C 32.8°F0.4°C 39% 5.0 mph N8.0 kmh N 6.0 mph9.7 kmh 30.07 in1018.3 mb - 0.00 in0.0 mm 0.01 in0.3 mm
08:00 PM 58.3°F14.6°C 32.8°F0.4°C 38% 8.2 mph N13.2 kmh N 11.0 mph17.7 kmh 30.06 in1017.9 mb - 0.00 in0.0 mm 0.01 in0.3 mm
07:50 PM 59.0°F15.0°C 33.4°F0.8°C 38% 6.1 mph NNW9.8 kmh NNW 10.0 mph16.1 kmh 30.06 in1017.9 mb - 0.00 in0.0 mm 0.01 in0.3 mm
07:40 PM 59.7°F15.4°C 32.7°F0.4°C 36% 4.0 mph N6.4 kmh N 9.0 mph14.5 kmh 30.06 in1017.9 mb - 0.00 in0.0 mm 0.01 in0.3 mm
07:30 PM 60.5°F15.8°C 32.7°F0.4°C 35% 7.9 mph N12.7 kmh N 12.0 mph19.3 kmh 30.05 in1017.6 mb - 0.00 in0.0 mm 0.01 in0.3 mm
07:20 PM 61.8°F16.6°C 33.1°F0.6°C 34% 7.0 mph N11.3 kmh N 13.0 mph20.9 kmh 30.05 in1017.6 mb - 0.00 in0.0 mm 0.01 in0.3 mm
07:10 PM 62.6°F17.0°C 33.1°F0.6°C 33% 8.9 mph N14.3 kmh N 12.0 mph19.3 kmh 30.04 in1017.3 mb - 0.00 in0.0 mm 0.01 in0.3 mm
07:00 PM 63.4°F17.4°C 33.0°F0.6°C 32% 7.5 mph NNW12.1 kmh NNW 9.0 mph14.5 kmh 30.04 in1017.3 mb - 0.00 in0.0 mm 0.01 in0.3 mm
06:50 PM 64.0°F17.8°C 33.5°F0.8°C 32% 8.2 mph NW13.2 kmh NW 15.0 mph24.1 kmh 30.04 in1017.3 mb - 0.00 in0.0 mm 0.01 in0.3 mm
06:40 PM 64.6°F18.1°C 33.3°F0.7°C 31% 9.2 mph NW14.8 kmh NW 11.0 mph17.7 kmh 30.04 in1017.3 mb - 0.00 in0.0 mm 0.01 in0.3 mm
06:30 PM 65.3°F18.5°C 33.0°F0.6°C 30% 8.8 mph N14.2 kmh N 12.0 mph19.3 kmh 30.04 in1017.3 mb - 0.00 in0.0 mm 0.01 in0.3 mm
06:20 PM 66.1°F18.9°C 33.8°F1.0°C 30% 9.7 mph N15.6 kmh N 16.0 mph25.7 kmh 30.03 in1016.9 mb - 0.00 in0.0 mm 0.01 in0.3 mm
06:10 PM 66.3°F19.1°C 34.7°F1.5°C 31% 7.2 mph NNW11.6 kmh NNW 11.0 mph17.7 kmh 30.04 in1017.3 mb - 0.00 in0.0 mm 0.01 in0.3 mm
06:00 PM 65.9°F18.8°C 35.2°F1.8°C 32% 7.0 mph NW11.3 kmh NW 12.0 mph19.3 kmh 30.03 in1016.9 mb - 0.00 in0.0 mm 0.01 in0.3 mm
05:50 PM 66.2°F19.0°C 35.4°F1.9°C 32% 10.7 mph N17.2 kmh N 18.0 mph29.0 kmh 30.04 in1017.3 mb - 0.00 in0.0 mm 0.01 in0.3 mm
05:40 PM 66.0°F18.9°C 34.5°F1.4°C 31% 12.0 mph NW19.3 kmh NW 15.0 mph24.1 kmh 30.03 in1016.9 mb - 0.00 in0.0 mm 0.01 in0.3 mm
05:30 PM 66.7°F19.3°C 35.9°F2.2°C 32% 11.8 mph NW19.0 kmh NW 17.0 mph27.4 kmh 30.03 in1016.9 mb - 0.00 in0.0 mm 0.01 in0.3 mm
05:20 PM 67.0°F19.4°C 37.7°F3.2°C 34% 9.1 mph N14.6 kmh N 14.0 mph22.5 kmh 30.03 in1016.9 mb - 0.00 in0.0 mm 0.01 in0.3 mm
05:10 PM 67.5°F19.7°C 38.1°F3.4°C 34% 12.0 mph NW19.3 kmh NW 20.0 mph32.2 kmh 30.03 in1016.9 mb - 0.00 in0.0 mm 0.01 in0.3 mm
05:00 PM 67.6°F19.8°C 38.2°F3.4°C 34% 14.2 mph NNW22.9 kmh NNW 15.0 mph24.1 kmh 30.02 in1016.6 mb - 0.00 in0.0 mm 0.01 in0.3 mm
04:50 PM 67.5°F19.7°C 38.2°F3.4°C 34% 11.2 mph NNE18.0 kmh NNE 14.0 mph22.5 kmh 30.03 in1016.9 mb - 0.00 in0.0 mm 0.01 in0.3 mm
04:40 PM 67.9°F19.9°C 39.2°F4.0°C 35% 13.5 mph NW21.7 kmh NW 22.0 mph35.4 kmh 30.03 in1016.9 mb - 0.00 in0.0 mm 0.01 in0.3 mm
04:30 PM 67.8°F19.9°C 39.9°F4.4°C 36% 11.8 mph NW19.0 kmh NW 18.0 mph29.0 kmh 30.03 in1016.9 mb - 0.00 in0.0 mm 0.01 in0.3 mm
04:20 PM 68.2°F20.1°C 38.7°F3.7°C 34% 14.2 mph NW22.9 kmh NW 20.0 mph32.2 kmh 30.03 in1016.9 mb - 0.00 in0.0 mm 0.01 in0.3 mm
04:10 PM 67.4°F19.7°C 40.9°F4.9°C 38% 12.6 mph NW20.3 kmh NW 17.0 mph27.4 kmh 30.03 in1016.9 mb - 0.00 in0.0 mm 0.01 in0.3 mm
04:00 PM 67.7°F19.8°C 40.5°F4.7°C 37% 11.6 mph NW18.7 kmh NW 19.0 mph30.6 kmh 30.03 in1016.9 mb - 0.00 in0.0 mm 0.01 in0.3 mm
03:50 PM 68.8°F20.4°C 40.7°F4.8°C 36% 8.8 mph N14.2 kmh N 15.0 mph24.1 kmh 30.03 in1016.9 mb - 0.00 in0.0 mm 0.01 in0.3 mm
03:40 PM 67.4°F19.7°C 40.9°F4.9°C 38% 10.5 mph NW16.9 kmh NW 17.0 mph27.4 kmh 30.04 in1017.3 mb - 0.00 in0.0 mm 0.01 in0.3 mm
03:30 PM 68.2°F20.1°C 41.6°F5.3°C 38% 11.3 mph NNW18.2 kmh NNW 13.0 mph20.9 kmh 30.04 in1017.3 mb - 0.00 in0.0 mm 0.01 in0.3 mm
03:20 PM 66.7°F19.3°C 40.9°F4.9°C 39% 12.6 mph NNW20.3 kmh NNW 15.0 mph24.1 kmh 30.05 in1017.6 mb - 0.00 in0.0 mm 0.01 in0.3 mm
03:10 PM 67.0°F19.4°C 41.9°F5.5°C 40% 11.5 mph NW18.5 kmh NW 14.0 mph22.5 kmh 30.05 in1017.6 mb - 0.00 in0.0 mm 0.01 in0.3 mm
03:00 PM 66.1°F18.9°C 42.3°F5.7°C 42% 7.3 mph WNW11.7 kmh WNW 19.0 mph30.6 kmh 30.05 in1017.6 mb - 0.00 in0.0 mm 0.01 in0.3 mm
02:50 PM 66.5°F19.2°C 42.0°F5.6°C 41% 10.2 mph NNE16.4 kmh NNE 15.0 mph24.1 kmh 30.06 in1017.9 mb - 0.00 in0.0 mm 0.01 in0.3 mm
02:40 PM 65.6°F18.7°C 43.1°F6.2°C 44% 9.6 mph WNW15.4 kmh WNW 15.0 mph24.1 kmh 30.06 in1017.9 mb - 0.00 in0.0 mm 0.01 in0.3 mm
02:30 PM 66.6°F19.2°C 42.2°F5.7°C 41% 7.6 mph NNW12.2 kmh NNW 13.0 mph20.9 kmh 30.07 in1018.3 mb - 0.00 in0.0 mm 0.01 in0.3 mm
02:20 PM 66.1°F18.9°C 43.6°F6.4°C 44% 9.5 mph NW15.3 kmh NW 19.0 mph30.6 kmh 30.07 in1018.3 mb - 0.00 in0.0 mm 0.01 in0.3 mm
02:10 PM 65.7°F18.7°C 42.6°F5.9°C 43% 11.3 mph NNE18.2 kmh NNE 18.0 mph29.0 kmh 30.07 in1018.3 mb - 0.00 in0.0 mm 0.01 in0.3 mm
02:00 PM 64.3°F17.9°C 41.9°F5.5°C 44% 11.2 mph NNW18.0 kmh NNW 13.0 mph20.9 kmh 30.08 in1018.6 mb - 0.00 in0.0 mm 0.01 in0.3 mm
01:50 PM 65.1°F18.4°C 45.0°F7.2°C 48% 9.0 mph NW14.5 kmh NW 19.0 mph30.6 kmh 30.07 in1018.3 mb - 0.00 in0.0 mm 0.01 in0.3 mm
01:40 PM 63.5°F17.5°C 42.9°F6.1°C 47% 10.4 mph NW16.7 kmh NW 16.0 mph25.7 kmh 30.08 in1018.6 mb - 0.00 in0.0 mm 0.01 in0.3 mm
01:30 PM 63.0°F17.2°C 43.0°F6.1°C 48% 10.9 mph NW17.5 kmh NW 13.0 mph20.9 kmh 30.08 in1018.6 mb - 0.00 in0.0 mm 0.01 in0.3 mm
01:20 PM 62.3°F16.8°C 44.0°F6.7°C 51% 12.0 mph NNW19.3 kmh NNW 14.0 mph22.5 kmh 30.08 in1018.6 mb - 0.00 in0.0 mm 0.01 in0.3 mm
01:10 PM 61.7°F16.5°C 43.9°F6.6°C 52% 13.9 mph NNE22.4 kmh NNE 20.0 mph32.2 kmh 30.08 in1018.6 mb - 0.00 in0.0 mm 0.01 in0.3 mm
01:00 PM 61.6°F16.4°C 44.8°F7.1°C 54% 8.7 mph NW14.0 kmh NW 19.0 mph30.6 kmh 30.08 in1018.6 mb - 0.00 in0.0 mm 0.01 in0.3 mm
12:50 PM 60.9°F16.1°C 44.6°F7.0°C 55% 14.5 mph NNW23.3 kmh NNW 20.0 mph32.2 kmh 30.09 in1019.0 mb - 0.00 in0.0 mm 0.01 in0.3 mm
12:40 PM 60.8°F16.0°C 46.4°F8.0°C 59% 9.1 mph NW14.6 kmh NW 16.0 mph25.7 kmh 30.09 in1019.0 mb - 0.00 in0.0 mm 0.01 in0.3 mm
12:30 PM 60.1°F15.6°C 45.7°F7.6°C 59% 11.6 mph NW18.7 kmh NW 20.0 mph32.2 kmh 30.09 in1019.0 mb - 0.00 in0.0 mm 0.01 in0.3 mm
12:20 PM 60.0°F15.6°C 45.6°F7.6°C 59% 12.7 mph NW20.4 kmh NW 18.0 mph29.0 kmh 30.09 in1019.0 mb - 0.00 in0.0 mm 0.01 in0.3 mm
12:10 PM 59.0°F15.0°C 45.6°F7.6°C 61% 14.0 mph NNW22.5 kmh NNW 23.0 mph37.0 kmh 30.09 in1019.0 mb - 0.00 in0.0 mm 0.01 in0.3 mm
12:00 PM 58.9°F14.9°C 45.9°F7.7°C 62% 14.8 mph N23.8 kmh N 20.0 mph32.2 kmh 30.09 in1019.0 mb - 0.00 in0.0 mm 0.01 in0.3 mm
11:50 AM 57.7°F14.3°C 46.1°F7.8°C 65% 8.0 mph NNW12.9 kmh NNW 13.0 mph20.9 kmh 30.09 in1019.0 mb - 0.00 in0.0 mm 0.01 in0.3 mm
11:40 AM 56.6°F13.7°C 45.3°F7.4°C 66% 14.2 mph NNW22.9 kmh NNW 18.0 mph29.0 kmh 30.09 in1019.0 mb - 0.00 in0.0 mm 0.01 in0.3 mm
11:30 AM 55.8°F13.2°C 44.2°F6.8°C 65% 15.6 mph NNW25.1 kmh NNW 22.0 mph35.4 kmh 30.09 in1019.0 mb - 0.00 in0.0 mm 0.01 in0.3 mm
11:20 AM 55.7°F13.2°C 45.3°F7.4°C 68% 10.9 mph NW17.5 kmh NW 20.0 mph32.2 kmh 30.08 in1018.6 mb - 0.00 in0.0 mm 0.01 in0.3 mm
11:10 AM 55.8°F13.2°C 45.0°F7.2°C 67% 15.3 mph NW24.6 kmh NW 19.0 mph30.6 kmh 30.08 in1018.6 mb - 0.00 in0.0 mm 0.01 in0.3 mm
11:00 AM 54.8°F12.7°C 45.2°F7.3°C 70% 11.8 mph N19.0 kmh N 19.0 mph30.6 kmh 30.08 in1018.6 mb - 0.00 in0.0 mm 0.01 in0.3 mm
10:50 AM 54.8°F12.7°C 44.8°F7.1°C 69% 14.6 mph NW23.5 kmh NW 21.0 mph33.8 kmh 30.08 in1018.6 mb - 0.00 in0.0 mm 0.01 in0.3 mm
10:40 AM 55.0°F12.8°C 46.1°F7.8°C 72% 11.2 mph NNW18.0 kmh NNW 16.0 mph25.7 kmh 30.08 in1018.6 mb - 0.00 in0.0 mm 0.01 in0.3 mm
10:30 AM 51.8°F11.0°C 44.2°F6.8°C 75% 11.5 mph N18.5 kmh N 24.0 mph38.6 kmh 30.07 in1018.3 mb - 0.00 in0.0 mm 0.01 in0.3 mm
10:20 AM 51.6°F10.9°C 44.3°F6.8°C 76% 10.4 mph NW16.7 kmh NW 16.0 mph25.7 kmh 30.07 in1018.3 mb - 0.00 in0.0 mm 0.01 in0.3 mm
10:10 AM 51.3°F10.7°C 44.4°F6.9°C 77% 13.4 mph NNE21.6 kmh NNE 18.0 mph29.0 kmh 30.07 in1018.3 mb - 0.00 in0.0 mm 0.01 in0.3 mm
10:00 AM 50.7°F10.4°C 44.5°F6.9°C 79% 8.9 mph NW14.3 kmh NW 14.0 mph22.5 kmh 30.06 in1017.9 mb - 0.00 in0.0 mm 0.01 in0.3 mm
09:50 AM 50.4°F10.2°C 44.1°F6.7°C 79% 13.2 mph NW21.2 kmh NW 19.0 mph30.6 kmh 30.05 in1017.6 mb - 0.00 in0.0 mm 0.01 in0.3 mm
09:40 AM 50.5°F10.3°C 44.2°F6.8°C 79% 13.1 mph NW21.1 kmh NW 22.0 mph35.4 kmh 30.05 in1017.6 mb - 0.00 in0.0 mm 0.01 in0.3 mm
09:30 AM 50.4°F10.2°C 44.5°F6.9°C 80% 11.7 mph N18.8 kmh N 14.0 mph22.5 kmh 30.05 in1017.6 mb - 0.00 in0.0 mm 0.01 in0.3 mm
09:20 AM 50.4°F10.2°C 44.2°F6.8°C 79% 11.9 mph N19.2 kmh N 17.0 mph27.4 kmh 30.05 in1017.6 mb - 0.00 in0.0 mm 0.01 in0.3 mm
09:10 AM 50.2°F10.1°C 44.3°F6.8°C 80% 8.6 mph NNW13.8 kmh NNW 14.0 mph22.5 kmh 30.05 in1017.6 mb - 0.00 in0.0 mm 0.01 in0.3 mm
09:00 AM 50.0°F10.0°C 43.8°F6.6°C 79% 14.3 mph NW23.0 kmh NW 22.0 mph35.4 kmh 30.04 in1017.3 mb - 0.00 in0.0 mm 0.01 in0.3 mm
08:50 AM 49.9°F9.9°C 44.3°F6.8°C 81% 8.8 mph NNW14.2 kmh NNW 10.0 mph16.1 kmh 30.04 in1017.3 mb - 0.00 in0.0 mm 0.01 in0.3 mm
08:40 AM 49.7°F9.8°C 43.8°F6.6°C 80% 12.5 mph N20.1 kmh N 18.0 mph29.0 kmh 30.04 in1017.3 mb - 0.00 in0.0 mm 0.01 in0.3 mm
08:30 AM 49.6°F9.8°C 43.7°F6.5°C 80% 15.2 mph N24.5 kmh N 31.0 mph49.9 kmh 30.03 in1016.9 mb - 0.00 in0.0 mm 0.01 in0.3 mm
08:20 AM 49.7°F9.8°C 44.1°F6.7°C 81% 15.0 mph NW24.1 kmh NW 23.0 mph37.0 kmh 30.02 in1016.6 mb - 0.00 in0.0 mm 0.01 in0.3 mm
08:10 AM 49.8°F9.9°C 44.2°F6.8°C 81% 12.3 mph NW19.8 kmh NW 21.0 mph33.8 kmh 30.02 in1016.6 mb - 0.00 in0.0 mm 0.01 in0.3 mm
08:00 AM 49.7°F9.8°C 44.1°F6.7°C 81% 12.7 mph NNW20.4 kmh NNW 18.0 mph29.0 kmh 30.02 in1016.6 mb - 0.00 in0.0 mm 0.01 in0.3 mm
07:50 AM 49.7°F9.8°C 44.4°F6.9°C 82% 13.1 mph N21.1 kmh N 21.0 mph33.8 kmh 30.01 in1016.3 mb - 0.00 in0.0 mm 0.01 in0.3 mm
07:40 AM 49.6°F9.8°C 44.0°F6.7°C 81% 15.7 mph N25.3 kmh N 20.0 mph32.2 kmh 30.00 in1015.9 mb - 0.00 in0.0 mm 0.01 in0.3 mm
07:30 AM 49.6°F9.8°C 44.3°F6.8°C 82% 15.0 mph NW24.1 kmh NW 22.0 mph35.4 kmh 29.99 in1015.6 mb - 0.00 in0.0 mm 0.01 in0.3 mm
07:20 AM 49.5°F9.7°C 44.2°F6.8°C 82% 10.9 mph NNW17.5 kmh NNW 17.0 mph27.4 kmh 29.98 in1015.2 mb - 0.00 in0.0 mm 0.01 in0.3 mm
07:10 AM 49.5°F9.7°C 44.2°F6.8°C 82% 15.1 mph NNW24.3 kmh NNW 22.0 mph35.4 kmh 29.98 in1015.2 mb - 0.00 in0.0 mm 0.01 in0.3 mm
07:00 AM 49.4°F9.7°C 44.2°F6.8°C 82% 15.4 mph NW24.8 kmh NW 19.0 mph30.6 kmh 29.97 in1014.9 mb - 0.00 in0.0 mm 0.01 in0.3 mm
06:50 AM 49.4°F9.7°C 44.1°F6.7°C 82% 16.0 mph NW25.7 kmh NW 24.0 mph38.6 kmh 29.96 in1014.6 mb - 0.00 in0.0 mm 0.01 in0.3 mm
06:40 AM 49.5°F9.7°C 44.6°F7.0°C 83% 12.5 mph NW20.1 kmh NW 19.0 mph30.6 kmh 29.96 in1014.6 mb - 0.00 in0.0 mm 0.01 in0.3 mm
06:30 AM 49.5°F9.7°C 44.9°F7.2°C 84% 11.4 mph NW18.3 kmh NW 16.0 mph25.7 kmh 29.95 in1014.2 mb - 0.00 in0.0 mm 0.01 in0.3 mm
06:20 AM 49.6°F9.8°C 44.9°F7.2°C 84% 12.7 mph NW20.4 kmh NW 16.0 mph25.7 kmh 29.95 in1014.2 mb - 0.00 in0.0 mm 0.01 in0.3 mm
06:10 AM 49.6°F9.8°C 45.0°F7.2°C 84% 10.6 mph NW17.1 kmh NW 19.0 mph30.6 kmh 29.95 in1014.2 mb - 0.00 in0.0 mm 0.01 in0.3 mm
06:00 AM 49.7°F9.8°C 45.1°F7.3°C 84% 14.8 mph NW23.8 kmh NW 24.0 mph38.6 kmh 29.95 in1014.2 mb - 0.00 in0.0 mm 0.01 in0.3 mm
05:50 AM 49.8°F9.9°C 45.2°F7.3°C 84% 14.7 mph NW23.7 kmh NW 21.0 mph33.8 kmh 29.94 in1013.9 mb - 0.00 in0.0 mm 0.01 in0.3 mm
05:40 AM 50.0°F10.0°C 45.4°F7.4°C 84% 12.3 mph NNE19.8 kmh NNE 19.0 mph30.6 kmh 29.94 in1013.9 mb - 0.00 in0.0 mm 0.01 in0.3 mm
05:30 AM 50.3°F10.2°C 45.9°F7.7°C 85% 11.4 mph NW18.3 kmh NW 17.0 mph27.4 kmh 29.93 in1013.5 mb - 0.00 in0.0 mm 0.01 in0.3 mm
05:20 AM 50.3°F10.2°C 46.0°F7.8°C 85% 15.1 mph NNW24.3 kmh NNW 24.0 mph38.6 kmh 29.93 in1013.5 mb - 0.00 in0.0 mm 0.01 in0.3 mm
05:10 AM 50.4°F10.2°C 45.7°F7.6°C 84% 13.9 mph N22.4 kmh N 23.0 mph37.0 kmh 29.93 in1013.5 mb - 0.00 in0.0 mm 0.01 in0.3 mm
05:00 AM 50.6°F10.3°C 46.6°F8.1°C 86% 14.2 mph N22.9 kmh N 23.0 mph37.0 kmh 29.93 in1013.5 mb - 0.00 in0.0 mm 0.01 in0.3 mm
04:50 AM 50.7°F10.4°C 46.6°F8.1°C 86% 12.7 mph NW20.4 kmh NW 16.0 mph25.7 kmh 29.92 in1013.2 mb - 0.00 in0.0 mm 0.01 in0.3 mm
04:40 AM 50.9°F10.5°C 46.9°F8.3°C 86% 11.4 mph NW18.3 kmh NW 21.0 mph33.8 kmh 29.92 in1013.2 mb - 0.00 in0.0 mm 0.01 in0.3 mm
04:30 AM 51.4°F10.8°C 47.6°F8.7°C 87% 13.0 mph NNW20.9 kmh NNW 18.0 mph29.0 kmh 29.91 in1012.9 mb - 0.00 in0.0 mm 0.01 in0.3 mm
04:20 AM 51.7°F10.9°C 47.6°F8.7°C 86% 8.9 mph NW14.3 kmh NW 19.0 mph30.6 kmh 29.91 in1012.9 mb - 0.00 in0.0 mm 0.01 in0.3 mm
04:10 AM 52.1°F11.2°C 48.7°F9.3°C 88% 15.0 mph NW24.1 kmh NW 31.0 mph49.9 kmh 29.90 in1012.5 mb - 0.00 in0.0 mm 0.01 in0.3 mm
04:00 AM 52.4°F11.3°C 48.9°F9.4°C 88% 12.9 mph WNW20.8 kmh WNW 14.0 mph22.5 kmh 29.89 in1012.2 mb - 0.00 in0.0 mm 0.01 in0.3 mm
03:50 AM 52.8°F11.6°C 49.3°F9.6°C 88% 18.7 mph NW30.1 kmh NW 29.0 mph46.7 kmh 29.89 in1012.2 mb - 0.00 in0.0 mm 0.01 in0.3 mm
03:40 AM 53.2°F11.8°C 49.7°F9.8°C 88% 14.5 mph N23.3 kmh N 21.0 mph33.8 kmh 29.89 in1012.2 mb - 0.00 in0.0 mm 0.01 in0.3 mm
03:30 AM 53.4°F11.9°C 49.9°F9.9°C 88% 14.6 mph N23.5 kmh N 24.0 mph38.6 kmh 29.88 in1011.9 mb - 0.00 in0.0 mm 0.01 in0.3 mm
03:20 AM 54.0°F12.2°C 50.8°F10.4°C 89% 14.2 mph NNE22.9 kmh NNE 23.0 mph37.0 kmh 29.88 in1011.9 mb - 0.00 in0.0 mm 0.01 in0.3 mm
03:10 AM 54.6°F12.6°C 51.4°F10.8°C 89% 14.8 mph NW23.8 kmh NW 23.0 mph37.0 kmh 29.87 in1011.5 mb - 0.00 in0.0 mm 0.01 in0.3 mm
03:00 AM 55.6°F13.1°C 52.4°F11.3°C 89% 15.3 mph NW24.6 kmh NW 21.0 mph33.8 kmh 29.85 in1010.8 mb - 0.00 in0.0 mm 0.01 in0.3 mm
02:50 AM 56.3°F13.5°C 52.8°F11.6°C 88% 17.4 mph NNW28.0 kmh NNW 23.0 mph37.0 kmh 29.85 in1010.8 mb - 0.00 in0.0 mm 0.01 in0.3 mm
02:40 AM 57.8°F14.3°C 54.6°F12.6°C 89% 16.7 mph NW26.9 kmh NW 25.0 mph40.2 kmh 29.84 in1010.5 mb - 0.01 in0.3 mm 0.01 in0.3 mm
02:30 AM 59.1°F15.1°C 55.9°F13.3°C 89% 14.3 mph NW23.0 kmh NW 20.0 mph32.2 kmh 29.83 in1010.2 mb - 0.00 in0.0 mm 0.00 in0.0 mm
02:20 AM 60.4°F15.8°C 57.2°F14.0°C 89% 11.6 mph NW18.7 kmh NW 18.0 mph29.0 kmh 29.85 in1010.8 mb - 0.00 in0.0 mm 0.00 in0.0 mm
02:10 AM 61.3°F16.3°C 57.7°F14.3°C 88% 11.2 mph NNW18.0 kmh NNW 16.0 mph25.7 kmh 29.85 in1010.8 mb - 0.00 in0.0 mm 0.00 in0.0 mm
02:00 AM 62.5°F16.9°C 58.3°F14.6°C 86% 13.1 mph NW21.1 kmh NW 20.0 mph32.2 kmh 29.82 in1009.8 mb - 0.00 in0.0 mm 0.00 in0.0 mm
01:50 AM 64.1°F17.8°C 59.5°F15.3°C 85% 15.7 mph NW25.3 kmh NW 18.0 mph29.0 kmh 29.82 in1009.8 mb - 0.00 in0.0 mm 0.00 in0.0 mm
01:40 AM 65.8°F18.8°C 60.5°F15.8°C 83% 8.5 mph NNW13.7 kmh NNW 17.0 mph27.4 kmh 29.82 in1009.8 mb - 0.00 in0.0 mm 0.00 in0.0 mm
01:30 AM 68.2°F20.1°C 61.5°F16.4°C 79% 11.8 mph NNW19.0 kmh NNW 17.0 mph27.4 kmh 29.80 in1009.1 mb - 0.00 in0.0 mm 0.00 in0.0 mm
01:20 AM 70.3°F21.3°C 62.8°F17.1°C 77% 7.7 mph NW12.4 kmh NW 9.0 mph14.5 kmh 29.79 in1008.8 mb - 0.00 in0.0 mm 0.00 in0.0 mm
01:10 AM 70.8°F21.6°C 62.1°F16.7°C 74% 1.5 mph WSW2.4 kmh WSW 2.0 mph3.2 kmh 29.77 in1008.1 mb - 0.00 in0.0 mm 0.00 in0.0 mm
01:00 AM 70.8°F21.6°C 62.1°F16.7°C 74% 7.1 mph SW11.4 kmh SW 11.0 mph17.7 kmh 29.77 in1008.1 mb - 0.00 in0.0 mm 0.00 in0.0 mm
12:50 AM 70.7°F21.5°C 62.0°F16.7°C 74% 2.1 mph SW3.4 kmh SW 6.0 mph9.7 kmh 29.77 in1008.1 mb - 0.00 in0.0 mm 0.00 in0.0 mm
12:40 AM 70.7°F21.5°C 62.0°F16.7°C 74% 6.3 mph WSW10.1 kmh WSW 10.0 mph16.1 kmh 29.77 in1008.1 mb - 0.00 in0.0 mm 0.00 in0.0 mm
12:30 AM 70.7°F21.5°C 61.6°F16.4°C 73% 5.7 mph WSW9.2 kmh WSW 7.0 mph11.3 kmh 29.75 in1007.5 mb - 0.00 in0.0 mm 0.00 in0.0 mm
12:20 AM 70.4°F21.3°C 61.3°F16.3°C 73% 8.7 mph W14.0 kmh W 17.0 mph27.4 kmh 29.75 in1007.5 mb - 0.00 in0.0 mm 0.00 in0.0 mm
12:10 AM 70.6°F21.4°C 61.5°F16.4°C 73% 10.8 mph S17.4 kmh S 17.0 mph27.4 kmh 29.69 in1005.4 mb - 0.00 in0.0 mm 0.00 in0.0 mm
12:00 AM 70.9°F21.6°C 61.4°F16.3°C 72% 9.4 mph S15.1 kmh S 17.0 mph27.4 kmh 29.69 in1005.4 mb - 0.00 in0.0 mm 0.00 in0.0 mm